createdAt,value
2018-01-27T00:00:02.643Z,1028.85
2018-01-27T00:01:03.345Z,1028.86
2018-01-27T00:02:03.895Z,1028.86
2018-01-27T00:03:02.621Z,1028.89
2018-01-27T00:04:01.934Z,1028.91
2018-01-27T00:05:01.973Z,1028.9
2018-01-27T00:06:01.923Z,1028.9
2018-01-27T00:07:02.768Z,1028.89
2018-01-27T00:08:03.646Z,1028.9
2018-01-27T00:09:02.146Z,1028.9
2018-01-27T00:10:02.024Z,1028.88
2018-01-27T00:11:02.066Z,1028.9
2018-01-27T00:12:02.148Z,1028.93
2018-01-27T00:13:01.933Z,1028.88
2018-01-27T00:14:02.041Z,1028.96
2018-01-27T00:15:01.979Z,1028.91
2018-01-27T00:16:02.048Z,1028.92
2018-01-27T00:17:02.008Z,1028.95
2018-01-27T00:18:01.972Z,1028.99
2018-01-27T00:19:02.159Z,1028.97
2018-01-27T00:20:03.688Z,1028.98
2018-01-27T00:21:02.697Z,1028.96
2018-01-27T00:22:02.255Z,1028.99
2018-01-27T00:23:02.250Z,1029.03
2018-01-27T00:24:02.625Z,1029.05
2018-01-27T00:25:02.291Z,1029.02
2018-01-27T00:26:02.146Z,1029.03
2018-01-27T00:27:02.112Z,1029.05
2018-01-27T00:28:02.223Z,1029.09
2018-01-27T00:29:02.444Z,1029.12
2018-01-27T00:30:03.621Z,1029.16
2018-01-27T00:31:02.295Z,1029.2
2018-01-27T00:32:02.845Z,1029.2
2018-01-27T00:33:02.102Z,1029.24
2018-01-27T00:34:02.575Z,1029.2
2018-01-27T00:35:02.857Z,1029.23
2018-01-27T00:36:02.740Z,1029.25
2018-01-27T00:37:02.111Z,1029.23
2018-01-27T00:38:02.687Z,1029.15
2018-01-27T00:39:02.709Z,1029.18
2018-01-27T00:40:02.704Z,1029.15
2018-01-27T00:41:02.121Z,1029.15
2018-01-27T00:42:01.988Z,1029.14
2018-01-27T00:43:02.350Z,1029.16
2018-01-27T00:44:03.606Z,1029.11
2018-01-27T00:45:02.054Z,1029.11
2018-01-27T00:46:02.811Z,1029.13
2018-01-27T00:47:03.308Z,1029.14
2018-01-27T00:48:02.702Z,1029.14
2018-01-27T00:49:02.676Z,1029.14
2018-01-27T00:50:03.778Z,1029.18
2018-01-27T00:51:02.875Z,1029.19
2018-01-27T00:52:02.386Z,1029.23
2018-01-27T00:53:02.098Z,1029.22
2018-01-27T00:54:02.012Z,1029.21
2018-01-27T00:55:02.041Z,1029.21
2018-01-27T00:56:02.042Z,1029.19
2018-01-27T00:57:01.973Z,1029.22
2018-01-27T00:58:02.303Z,1029.22
2018-01-27T00:59:02.009Z,1029.24
2018-01-27T01:00:02.240Z,1029.29
2018-01-27T01:01:02.118Z,1029.32
2018-01-27T01:02:03.107Z,1029.36
2018-01-27T01:03:02.165Z,1029.4
2018-01-27T01:04:02.353Z,1029.39
2018-01-27T01:05:02.119Z,1029.38
2018-01-27T01:06:02.278Z,1029.39
2018-01-27T01:07:03.576Z,1029.39
2018-01-27T01:08:02.128Z,1029.44
2018-01-27T01:09:02.147Z,1029.4
2018-01-27T01:10:02.666Z,1029.42
2018-01-27T01:11:01.976Z,1029.43
2018-01-27T01:12:02.961Z,1029.44
2018-01-27T01:13:03.000Z,1029.42
2018-01-27T01:14:02.201Z,1029.42
2018-01-27T01:15:02.829Z,1029.4
2018-01-27T01:16:02.113Z,1029.43
2018-01-27T01:17:02.188Z,1029.44
2018-01-27T01:18:01.977Z,1029.45
2018-01-27T01:19:02.087Z,1029.44
2018-01-27T01:20:02.697Z,1029.46
2018-01-27T01:21:02.066Z,1029.46
2018-01-27T01:22:02.212Z,1029.44
2018-01-27T01:23:02.095Z,1029.47
2018-01-27T01:24:02.234Z,1029.49
2018-01-27T01:25:02.294Z,1029.45
2018-01-27T01:26:02.140Z,1029.45
2018-01-27T01:27:02.119Z,1029.48
2018-01-27T01:28:02.957Z,1029.48
2018-01-27T01:29:02.270Z,1029.48
2018-01-27T01:30:02.231Z,1029.51
2018-01-27T01:31:02.100Z,1029.54
2018-01-27T01:32:02.710Z,1029.58
2018-01-27T01:33:02.223Z,1029.6
2018-01-27T01:34:02.116Z,1029.64
2018-01-27T01:35:02.134Z,1029.62
2018-01-27T01:36:03.039Z,1029.66
2018-01-27T01:37:02.967Z,1029.71
2018-01-27T01:38:02.597Z,1029.72
2018-01-27T01:39:01.949Z,1029.74
2018-01-27T01:40:02.066Z,1029.75
2018-01-27T01:41:02.169Z,1029.74
2018-01-27T01:42:02.238Z,1029.72
2018-01-27T01:43:02.849Z,1029.74
2018-01-27T01:44:02.968Z,1029.79
2018-01-27T01:45:02.312Z,1029.79
2018-01-27T01:46:02.243Z,1029.8
2018-01-27T01:47:02.567Z,1029.83
2018-01-27T01:48:02.076Z,1029.8
2018-01-27T01:49:02.196Z,1029.82
2018-01-27T01:50:02.300Z,1029.82
2018-01-27T01:51:02.756Z,1029.86
2018-01-27T01:52:02.320Z,1029.83
2018-01-27T01:53:02.119Z,1029.86
2018-01-27T01:54:03.302Z,1029.91
2018-01-27T01:55:02.194Z,1029.89
2018-01-27T01:56:02.044Z,1029.89
2018-01-27T01:57:02.194Z,1029.9
2018-01-27T01:58:02.085Z,1029.93
2018-01-27T01:59:02.222Z,1029.89
2018-01-27T02:00:02.307Z,1029.9
2018-01-27T02:01:02.131Z,1029.93
2018-01-27T02:02:02.903Z,1029.9
2018-01-27T02:03:02.290Z,1029.94
2018-01-27T02:04:02.822Z,1029.94
2018-01-27T02:05:02.163Z,1029.94
2018-01-27T02:06:02.225Z,1029.98
2018-01-27T02:07:02.426Z,1030.01
2018-01-27T02:08:02.671Z,1029.99
2018-01-27T02:09:02.840Z,1030.01
2018-01-27T02:10:02.162Z,1030.01
2018-01-27T02:11:02.080Z,1030.05
2018-01-27T02:12:02.263Z,1030.02
2018-01-27T02:13:02.154Z,1030.08
2018-01-27T02:14:02.693Z,1030.07
2018-01-27T02:15:02.210Z,1030.08
2018-01-27T02:16:02.726Z,1030.06
2018-01-27T02:17:02.193Z,1030.07
2018-01-27T02:18:02.302Z,1030.11
2018-01-27T02:19:02.223Z,1030.15
2018-01-27T02:20:03.016Z,1030.14
2018-01-27T02:21:02.224Z,1030.11
2018-01-27T02:22:02.265Z,1030.13
2018-01-27T02:23:02.480Z,1030.13
2018-01-27T02:24:02.355Z,1030.12
2018-01-27T02:25:02.256Z,1030.14
2018-01-27T02:26:02.481Z,1030.14
2018-01-27T02:27:02.249Z,1030.12
2018-01-27T02:28:02.186Z,1030.14
2018-01-27T02:29:02.159Z,1030.12
2018-01-27T02:30:02.258Z,1030.09
2018-01-27T02:31:02.273Z,1030.16
2018-01-27T02:32:02.940Z,1030.14
2018-01-27T02:33:02.160Z,1030.16
2018-01-27T02:34:02.192Z,1030.16
2018-01-27T02:35:02.238Z,1030.11
2018-01-27T02:36:02.404Z,1030.12
2018-01-27T02:37:02.422Z,1030.16
2018-01-27T02:38:02.235Z,1030.12
2018-01-27T02:39:02.246Z,1030.16
2018-01-27T02:40:02.312Z,1030.15
2018-01-27T02:41:02.343Z,1030.18
2018-01-27T02:42:02.137Z,1030.19
2018-01-27T02:43:02.332Z,1030.19
2018-01-27T02:44:02.953Z,1030.23
2018-01-27T02:45:02.278Z,1030.2
2018-01-27T02:46:02.227Z,1030.23
2018-01-27T02:47:02.163Z,1030.23
2018-01-27T02:48:02.252Z,1030.23
2018-01-27T02:49:02.318Z,1030.22
2018-01-27T02:50:03.036Z,1030.19
2018-01-27T02:51:03.091Z,1030.2
2018-01-27T02:52:02.296Z,1030.19
2018-01-27T02:53:02.384Z,1030.22
2018-01-27T02:54:02.206Z,1030.17
2018-01-27T02:55:02.296Z,1030.16
2018-01-27T02:56:02.193Z,1030.18
2018-01-27T02:57:03.121Z,1030.19
2018-01-27T02:58:02.290Z,1030.14
2018-01-27T02:59:02.364Z,1030.2
2018-01-27T03:00:02.285Z,1030.19
2018-01-27T03:01:02.438Z,1030.2
2018-01-27T03:02:02.287Z,1030.25
2018-01-27T03:03:03.205Z,1030.27
2018-01-27T03:04:03.058Z,1030.27
2018-01-27T03:05:02.752Z,1030.28
2018-01-27T03:06:02.331Z,1030.29
2018-01-27T03:07:02.249Z,1030.33
2018-01-27T03:08:02.267Z,1030.3
2018-01-27T03:09:02.170Z,1030.29
2018-01-27T03:10:02.142Z,1030.3
2018-01-27T03:11:02.146Z,1030.3
2018-01-27T03:12:02.129Z,1030.33
2018-01-27T03:13:02.374Z,1030.32
2018-01-27T03:14:02.348Z,1030.38
2018-01-27T03:15:02.434Z,1030.36
2018-01-27T03:16:02.253Z,1030.36
2018-01-27T03:17:02.332Z,1030.39
2018-01-27T03:18:02.166Z,1030.36
2018-01-27T03:19:02.320Z,1030.39
2018-01-27T03:20:02.104Z,1030.33
2018-01-27T03:21:02.826Z,1030.37
2018-01-27T03:22:02.435Z,1030.4
2018-01-27T03:23:02.377Z,1030.41
2018-01-27T03:24:02.392Z,1030.42
2018-01-27T03:25:02.139Z,1030.45
2018-01-27T03:26:03.006Z,1030.45
2018-01-27T03:27:02.922Z,1030.5
2018-01-27T03:28:02.336Z,1030.48
2018-01-27T03:29:02.335Z,1030.52
2018-01-27T03:30:02.494Z,1030.51
2018-01-27T03:31:02.314Z,1030.57
2018-01-27T03:32:03.024Z,1030.57
2018-01-27T03:33:02.269Z,1030.61
2018-01-27T03:34:02.356Z,1030.6
2018-01-27T03:35:03.076Z,1030.6
2018-01-27T03:36:02.326Z,1030.66
2018-01-27T03:37:02.222Z,1030.66
2018-01-27T03:38:02.909Z,1030.66
2018-01-27T03:39:02.634Z,1030.64
2018-01-27T03:40:02.274Z,1030.64
2018-01-27T03:41:02.408Z,1030.63
2018-01-27T03:42:02.538Z,1030.66
2018-01-27T03:43:02.545Z,1030.64
2018-01-27T03:44:03.346Z,1030.74
2018-01-27T03:45:02.481Z,1030.79
2018-01-27T03:46:02.380Z,1030.81
2018-01-27T03:47:02.485Z,1030.81
2018-01-27T03:48:02.445Z,1030.81
2018-01-27T03:49:02.309Z,1030.83
2018-01-27T03:50:02.531Z,1030.85
2018-01-27T03:51:02.347Z,1030.9
2018-01-27T03:52:05.064Z,1030.89
2018-01-27T03:53:02.584Z,1030.92
2018-01-27T03:54:02.882Z,1030.93
2018-01-27T03:55:02.860Z,1030.97
2018-01-27T03:56:03.318Z,1031
2018-01-27T03:57:03.505Z,1031.03
2018-01-27T03:58:03.346Z,1030.98
2018-01-27T03:59:02.341Z,1031.05
2018-01-27T04:00:02.731Z,1031.06
2018-01-27T04:01:03.266Z,1031.03
2018-01-27T04:02:02.447Z,1031.11
2018-01-27T04:03:03.526Z,1031.14
2018-01-27T04:04:02.404Z,1031.13
2018-01-27T04:06:02.382Z,1031.2
2018-01-27T04:07:05.013Z,1031.2
2018-01-27T04:08:06.114Z,1031.22
2018-01-27T04:09:02.251Z,1031.25
2018-01-27T04:10:03.076Z,1031.25
2018-01-27T04:11:02.401Z,1031.23
2018-01-27T04:12:03.256Z,1031.31
2018-01-27T04:13:03.861Z,1031.32
2018-01-27T04:14:03.009Z,1031.27
2018-01-27T04:15:03.092Z,1031.28
2018-01-27T04:16:02.420Z,1031.31
2018-01-27T04:17:04.144Z,1031.33
2018-01-27T04:18:02.202Z,1031.33
2018-01-27T04:19:02.575Z,1031.35
2018-01-27T04:20:03.147Z,1031.35
2018-01-27T04:21:04.575Z,1031.38
2018-01-27T04:22:03.907Z,1031.39
2018-01-27T04:23:02.686Z,1031.44
2018-01-27T04:24:02.613Z,1031.39
2018-01-27T04:25:02.464Z,1031.4
2018-01-27T04:26:02.725Z,1031.42
2018-01-27T04:27:03.123Z,1031.42
2018-01-27T04:28:02.624Z,1031.42
2018-01-27T04:29:02.577Z,1031.44
2018-01-27T04:30:02.364Z,1031.44
2018-01-27T04:31:02.579Z,1031.48
2018-01-27T04:32:02.763Z,1031.47
2018-01-27T04:33:03.779Z,1031.49
2018-01-27T04:34:02.982Z,1031.5
2018-01-27T04:35:02.690Z,1031.5
2018-01-27T04:36:02.376Z,1031.51
2018-01-27T04:37:02.984Z,1031.56
2018-01-27T04:38:02.553Z,1031.56
2018-01-27T04:39:02.250Z,1031.59
2018-01-27T04:40:02.716Z,1031.54
2018-01-27T04:41:02.332Z,1031.58
2018-01-27T04:42:03.684Z,1031.57
2018-01-27T04:43:02.443Z,1031.57
2018-01-27T04:44:03.233Z,1031.58
2018-01-27T04:45:02.621Z,1031.64
2018-01-27T04:46:02.358Z,1031.61
2018-01-27T04:47:02.625Z,1031.6
2018-01-27T04:48:02.620Z,1031.57
2018-01-27T04:49:02.388Z,1031.59
2018-01-27T04:50:03.091Z,1031.59
2018-01-27T04:51:03.870Z,1031.6
2018-01-27T04:52:04.659Z,1031.57
2018-01-27T04:53:02.582Z,1031.6
2018-01-27T04:54:03.362Z,1031.61
2018-01-27T04:55:02.700Z,1031.58
2018-01-27T04:56:03.977Z,1031.6
2018-01-27T04:57:02.919Z,1031.61
2018-01-27T04:58:03.201Z,1031.57
2018-01-27T04:59:05.902Z,1031.58
2018-01-27T05:00:02.665Z,1031.59
2018-01-27T05:01:04.935Z,1031.58
2018-01-27T05:02:14.673Z,1031.63
2018-01-27T05:03:03.380Z,1031.61
2018-01-27T05:04:03.371Z,1031.64
2018-01-27T05:05:02.713Z,1031.66
2018-01-27T05:06:02.872Z,1031.63
2018-01-27T05:07:02.681Z,1031.64
2018-01-27T05:08:04.804Z,1031.67
2018-01-27T05:09:08.198Z,1031.67
2018-01-27T05:10:03.726Z,1031.66
2018-01-27T05:11:02.574Z,1031.71
2018-01-27T05:12:02.539Z,1031.72
2018-01-27T05:13:04.706Z,1031.72
2018-01-27T05:14:03.177Z,1031.76
2018-01-27T05:15:04.660Z,1031.81
2018-01-27T05:16:03.388Z,1031.8
2018-01-27T05:17:03.516Z,1031.81
2018-01-27T05:18:02.753Z,1031.84
2018-01-27T05:19:03.902Z,1031.85
2018-01-27T05:20:03.704Z,1031.86
2018-01-27T05:21:03.693Z,1031.89
2018-01-27T05:22:03.739Z,1031.88
2018-01-27T05:23:03.468Z,1031.9
2018-01-27T05:24:02.590Z,1031.86
2018-01-27T05:25:06.919Z,1031.84
2018-01-27T05:26:04.486Z,1031.87
2018-01-27T05:27:03.055Z,1031.9
2018-01-27T05:28:04.106Z,1031.85
2018-01-27T05:29:03.513Z,1031.89
2018-01-27T05:30:03.889Z,1031.9
2018-01-27T05:31:02.880Z,1031.94
2018-01-27T05:32:05.059Z,1031.93
2018-01-27T05:33:03.464Z,1031.98
2018-01-27T05:34:04.635Z,1031.96
2018-01-27T05:35:02.806Z,1032
2018-01-27T05:36:03.868Z,1031.98
2018-01-27T05:37:02.954Z,1032.02
2018-01-27T05:38:02.708Z,1032.01
2018-01-27T05:39:02.953Z,1032.08
2018-01-27T05:40:04.701Z,1032.09
2018-01-27T05:41:02.808Z,1032.08
2018-01-27T05:42:03.655Z,1032.05
2018-01-27T05:43:02.838Z,1032.13
2018-01-27T05:44:05.682Z,1032.16
2018-01-27T05:45:04.755Z,1032.17
2018-01-27T05:46:02.994Z,1032.24
2018-01-27T05:47:02.978Z,1032.23
2018-01-27T05:48:02.873Z,1032.27
2018-01-27T05:49:03.505Z,1032.27
2018-01-27T05:50:02.763Z,1032.28
2018-01-27T05:51:03.197Z,1032.29
2018-01-27T05:52:02.637Z,1032.31
2018-01-27T05:53:02.639Z,1032.34
2018-01-27T05:54:02.741Z,1032.36
2018-01-27T05:55:02.716Z,1032.37
2018-01-27T05:56:02.593Z,1032.37
2018-01-27T05:59:02.779Z,1032.43
2018-01-27T06:00:02.562Z,1032.44
2018-01-27T06:01:02.689Z,1032.41
2018-01-27T06:02:02.652Z,1032.42
2018-01-27T06:03:02.616Z,1032.42
2018-01-27T06:04:02.655Z,1032.45
2018-01-27T06:05:02.581Z,1032.41
2018-01-27T06:06:02.702Z,1032.44
2018-01-27T06:07:02.671Z,1032.45
2018-01-27T06:08:02.672Z,1032.48
2018-01-27T06:09:02.638Z,1032.52
2018-01-27T06:10:02.543Z,1032.57
2018-01-27T06:11:02.695Z,1032.62
2018-01-27T06:12:02.621Z,1032.65
2018-01-27T06:13:02.657Z,1032.69
2018-01-27T06:14:02.737Z,1032.76
2018-01-27T06:15:02.548Z,1032.69
2018-01-27T06:16:02.566Z,1032.75
2018-01-27T06:17:02.634Z,1032.78
2018-01-27T06:18:02.645Z,1032.78
2018-01-27T06:19:02.658Z,1032.79
2018-01-27T06:20:02.584Z,1032.76
2018-01-27T06:21:02.599Z,1032.75
2018-01-27T06:22:02.733Z,1032.73
2018-01-27T06:23:02.707Z,1032.76
2018-01-27T06:24:02.767Z,1032.76
2018-01-27T06:25:02.730Z,1032.75
2018-01-27T06:26:02.637Z,1032.79
2018-01-27T06:27:02.644Z,1032.78
2018-01-27T06:28:02.709Z,1032.81
2018-01-27T06:29:02.738Z,1032.81
2018-01-27T06:30:02.735Z,1032.85
2018-01-27T06:31:02.696Z,1032.83
2018-01-27T06:32:02.678Z,1032.85
2018-01-27T06:33:02.695Z,1032.85
2018-01-27T06:34:02.804Z,1032.87
2018-01-27T06:35:02.690Z,1032.89
2018-01-27T06:36:02.792Z,1032.85
2018-01-27T06:37:02.757Z,1032.93
2018-01-27T06:38:02.749Z,1032.93
2018-01-27T06:39:02.646Z,1032.93
2018-01-27T06:40:04.099Z,1032.98
2018-01-27T06:41:02.731Z,1033
2018-01-27T06:42:02.777Z,1033.03
2018-01-27T06:43:02.835Z,1033.04
2018-01-27T06:44:02.672Z,1033
2018-01-27T06:45:02.757Z,1033.03
2018-01-27T06:46:02.776Z,1033.02
2018-01-27T06:47:02.768Z,1033.02
2018-01-27T06:48:02.716Z,1033.03
2018-01-27T06:49:02.723Z,1033.05
2018-01-27T06:50:03.154Z,1033.1
2018-01-27T06:51:02.780Z,1033.11
2018-01-27T06:52:02.949Z,1033.08
2018-01-27T06:53:01.951Z,1033.13
2018-01-27T06:54:01.990Z,1033.13
2018-01-27T06:55:01.894Z,1033.14
2018-01-27T06:56:01.945Z,1033.16
2018-01-27T06:57:02.079Z,1033.18
2018-01-27T06:58:01.991Z,1033.17
2018-01-27T06:59:01.930Z,1033.18
2018-01-27T07:00:01.929Z,1033.22
2018-01-27T07:01:02.050Z,1033.23
2018-01-27T07:02:02.090Z,1033.23
2018-01-27T07:03:01.919Z,1033.26
2018-01-27T07:04:02.058Z,1033.28
2018-01-27T07:05:01.898Z,1033.27
2018-01-27T07:06:02.095Z,1033.28
2018-01-27T07:07:02.068Z,1033.34
2018-01-27T07:08:01.946Z,1033.34
2018-01-27T07:09:01.941Z,1033.37
2018-01-27T07:10:01.988Z,1033.41
2018-01-27T07:11:01.910Z,1033.39
2018-01-27T07:12:02.027Z,1033.39
2018-01-27T07:13:02.029Z,1033.44
2018-01-27T07:14:01.986Z,1033.42
2018-01-27T07:15:02.048Z,1033.41
2018-01-27T07:16:02.047Z,1033.38
2018-01-27T07:17:01.932Z,1033.42
2018-01-27T07:18:01.995Z,1033.41
2018-01-27T07:19:02.048Z,1033.41
2018-01-27T07:20:02.232Z,1033.41
2018-01-27T07:21:01.962Z,1033.44
2018-01-27T07:22:01.906Z,1033.49
2018-01-27T07:23:02.110Z,1033.51
2018-01-27T07:24:01.990Z,1033.52
2018-01-27T07:25:02.227Z,1033.52
2018-01-27T07:26:02.017Z,1033.56
2018-01-27T07:27:01.993Z,1033.56
2018-01-27T07:28:02.010Z,1033.62
2018-01-27T07:29:02.072Z,1033.6
2018-01-27T07:30:02.071Z,1033.59
2018-01-27T07:31:02.252Z,1033.6
2018-01-27T07:32:02.041Z,1033.64
2018-01-27T07:33:01.972Z,1033.67
2018-01-27T07:34:02.001Z,1033.65
2018-01-27T07:35:02.092Z,1033.7
2018-01-27T07:36:02.034Z,1033.69
2018-01-27T07:37:02.020Z,1033.71
2018-01-27T07:38:02.206Z,1033.69
2018-01-27T07:39:01.995Z,1033.68
2018-01-27T07:40:02.767Z,1033.78
2018-01-27T07:41:02.212Z,1033.78
2018-01-27T07:42:01.972Z,1033.83
2018-01-27T07:43:02.081Z,1033.88
2018-01-27T07:44:02.041Z,1033.91
2018-01-27T07:45:02.209Z,1033.93
2018-01-27T07:46:01.998Z,1033.94
2018-01-27T07:47:01.981Z,1033.96
2018-01-27T07:48:02.088Z,1033.94
2018-01-27T07:49:02.042Z,1033.95
2018-01-27T07:50:02.071Z,1033.91
2018-01-27T07:51:01.965Z,1033.94
2018-01-27T07:52:02.002Z,1033.9
2018-01-27T07:53:02.194Z,1033.97
2018-01-27T07:54:01.996Z,1033.95
2018-01-27T07:55:02.094Z,1034.05
2018-01-27T07:56:02.084Z,1034.01
2018-01-27T07:57:02.074Z,1034.08
2018-01-27T07:58:02.195Z,1034.08
2018-01-27T07:59:02.085Z,1034.07
2018-01-27T08:00:02.062Z,1034.12
2018-01-27T08:01:02.112Z,1034.15
2018-01-27T08:02:02.147Z,1034.1
2018-01-27T08:03:02.118Z,1034.11
2018-01-27T08:04:02.021Z,1034.1
2018-01-27T08:05:02.199Z,1034.09
2018-01-27T08:06:02.068Z,1034.1
2018-01-27T08:07:02.114Z,1034.12
2018-01-27T08:08:02.082Z,1034.15
2018-01-27T08:09:02.089Z,1034.17
2018-01-27T08:10:02.133Z,1034.18
2018-01-27T08:11:02.023Z,1034.17
2018-01-27T08:12:02.227Z,1034.18
2018-01-27T08:13:02.132Z,1034.18
2018-01-27T08:14:02.124Z,1034.18
2018-01-27T08:15:02.028Z,1034.17
2018-01-27T08:16:02.158Z,1034.21
2018-01-27T08:17:02.192Z,1034.22
2018-01-27T08:18:01.997Z,1034.22
2018-01-27T08:19:02.118Z,1034.26
2018-01-27T08:20:02.075Z,1034.28
2018-01-27T08:21:02.689Z,1034.31
2018-01-27T08:22:02.173Z,1034.32
2018-01-27T08:23:02.186Z,1034.3
2018-01-27T08:24:02.197Z,1034.3
2018-01-27T08:25:02.200Z,1034.33
2018-01-27T08:26:02.072Z,1034.3
2018-01-27T08:27:02.128Z,1034.38
2018-01-27T08:28:02.308Z,1034.38
2018-01-27T08:29:02.137Z,1034.38
2018-01-27T08:30:02.174Z,1034.41
2018-01-27T08:31:02.173Z,1034.46
2018-01-27T08:32:02.233Z,1034.42
2018-01-27T08:33:02.191Z,1034.44
2018-01-27T08:36:16.286Z,1034.48
2018-01-27T08:37:02.116Z,1034.49
2018-01-27T08:38:02.107Z,1034.46
2018-01-27T08:39:02.217Z,1034.45
2018-01-27T08:40:02.131Z,1034.49
2018-01-27T08:41:02.218Z,1034.47
2018-01-27T08:42:02.194Z,1034.5
2018-01-27T08:43:02.208Z,1034.53
2018-01-27T08:44:02.198Z,1034.52
2018-01-27T08:45:02.099Z,1034.55
2018-01-27T08:46:02.233Z,1034.53
2018-01-27T08:47:02.188Z,1034.56
2018-01-27T08:48:02.257Z,1034.54
2018-01-27T08:49:02.171Z,1034.56
2018-01-27T08:50:02.169Z,1034.51
2018-01-27T08:51:02.173Z,1034.5
2018-01-27T08:52:02.185Z,1034.49
2018-01-27T08:53:02.211Z,1034.49
2018-01-27T08:54:02.314Z,1034.48
2018-01-27T08:55:02.226Z,1034.5
2018-01-27T08:56:02.270Z,1034.53
2018-01-27T08:57:02.198Z,1034.5
2018-01-27T08:58:02.956Z,1034.54
2018-01-27T08:59:02.212Z,1034.53
2018-01-27T09:00:02.144Z,1034.58
2018-01-27T09:01:02.175Z,1034.6
2018-01-27T09:02:02.183Z,1034.63
2018-01-27T09:03:02.240Z,1034.69
2018-01-27T09:04:02.265Z,1034.68
2018-01-27T09:05:02.204Z,1034.71
2018-01-27T09:06:27.222Z,1034.77
2018-01-27T09:07:02.168Z,1034.77
2018-01-27T09:08:02.157Z,1034.82
2018-01-27T09:09:02.317Z,1034.83
2018-01-27T09:10:18.640Z,1034.84
2018-01-27T09:11:18.459Z,1034.85
2018-01-27T09:13:18.473Z,1034.85
2018-01-27T09:14:18.433Z,1034.89
2018-01-27T09:15:18.447Z,1034.94
2018-01-27T09:16:18.545Z,1034.91
2018-01-27T09:17:18.471Z,1034.93
2018-01-27T09:18:18.523Z,1034.95
2018-01-27T09:19:18.510Z,1034.93
2018-01-27T09:20:18.318Z,1034.98
2018-01-27T09:21:18.316Z,1034.93
2018-01-27T09:22:18.851Z,1034.98
2018-01-27T09:23:18.450Z,1034.96
2018-01-27T09:24:17.343Z,1034.94
2018-01-27T09:25:17.384Z,1034.99
2018-01-27T09:26:17.349Z,1034.98
2018-01-27T09:27:17.729Z,1035.02
2018-01-27T09:28:17.461Z,1035
2018-01-27T09:29:17.255Z,1035.04
2018-01-27T09:30:17.703Z,1035.07
2018-01-27T09:31:17.388Z,1035.09
2018-01-27T09:32:17.331Z,1035.14
2018-01-27T09:33:17.301Z,1035.19
2018-01-27T09:34:17.321Z,1035.17
2018-01-27T09:35:17.407Z,1035.25
2018-01-27T09:36:17.355Z,1035.26
2018-01-27T09:37:17.361Z,1035.28
2018-01-27T09:38:17.379Z,1035.31
2018-01-27T09:39:17.329Z,1035.31
2018-01-27T09:40:17.443Z,1035.31
2018-01-27T09:41:17.372Z,1035.3
2018-01-27T09:42:17.366Z,1035.36
2018-01-27T09:43:17.402Z,1035.35
2018-01-27T09:44:17.379Z,1035.35
2018-01-27T09:45:17.342Z,1035.4
2018-01-27T09:46:17.288Z,1035.46
2018-01-27T09:47:17.417Z,1035.44
2018-01-27T09:48:18.429Z,1035.43
2018-01-27T09:49:17.430Z,1035.44
2018-01-27T09:50:17.418Z,1035.42
2018-01-27T09:51:17.405Z,1035.39
2018-01-27T09:52:17.550Z,1035.41
2018-01-27T09:53:17.326Z,1035.43
2018-01-27T09:54:17.341Z,1035.46
2018-01-27T09:55:17.364Z,1035.48
2018-01-27T09:56:17.450Z,1035.5
2018-01-27T09:57:48.223Z,1035.49
2018-01-27T09:58:19.741Z,1035.47
2018-01-27T09:59:20.553Z,1035.47
2018-01-27T10:00:18.347Z,1035.42
2018-01-27T10:01:18.197Z,1035.41
2018-01-27T10:02:17.675Z,1035.39
2018-01-27T10:03:18.752Z,1035.4
2018-01-27T10:04:17.677Z,1035.4
2018-01-27T10:05:19.872Z,1035.4
2018-01-27T10:06:18.619Z,1035.41
2018-01-27T10:07:17.435Z,1035.45
2018-01-27T10:08:17.632Z,1035.46
2018-01-27T10:09:18.898Z,1035.45
2018-01-27T10:10:21.665Z,1035.44
2018-01-27T10:11:27.967Z,1035.48
2018-01-27T10:12:22.043Z,1035.5
2018-01-27T10:13:18.265Z,1035.5
2018-01-27T10:14:18.166Z,1035.5
2018-01-27T10:15:17.406Z,1035.5
2018-01-27T10:16:20.547Z,1035.52
2018-01-27T10:17:19.087Z,1035.52
2018-01-27T10:18:17.088Z,1035.55
2018-01-27T10:19:45.984Z,1035.6
2018-01-27T10:20:17.249Z,1035.65
2018-01-27T10:21:18.202Z,1035.66
2018-01-27T10:22:17.337Z,1035.67
2018-01-27T10:23:17.830Z,1035.66
2018-01-27T10:24:17.105Z,1035.67
2018-01-27T10:25:19.864Z,1035.7
2018-01-27T10:26:23.171Z,1035.74
2018-01-27T10:27:17.837Z,1035.79
2018-01-27T10:28:18.695Z,1035.82
2018-01-27T10:29:18.363Z,1035.83
2018-01-27T10:30:19.543Z,1035.88
2018-01-27T10:31:17.142Z,1035.91
2018-01-27T10:32:17.133Z,1035.89
2018-01-27T10:33:16.990Z,1035.92
2018-01-27T10:34:18.245Z,1035.97
2018-01-27T10:35:19.110Z,1035.97
2018-01-27T10:36:20.739Z,1036
2018-01-27T10:37:18.068Z,1035.95
2018-01-27T10:38:18.481Z,1036.01
2018-01-27T10:39:17.080Z,1035.96
2018-01-27T10:40:16.972Z,1036
2018-01-27T10:41:18.105Z,1036.02
2018-01-27T10:42:17.232Z,1036.02
2018-01-27T10:43:17.684Z,1036.05
2018-01-27T10:44:18.505Z,1036.1
2018-01-27T10:45:18.412Z,1036.11
2018-01-27T10:46:17.060Z,1036.12
2018-01-27T10:47:18.414Z,1036.11
2018-01-27T10:48:17.281Z,1036.12
2018-01-27T10:49:17.476Z,1036.15
2018-01-27T10:50:18.995Z,1036.18
2018-01-27T10:51:17.989Z,1036.18
2018-01-27T10:52:17.917Z,1036.16
2018-01-27T10:53:17.722Z,1036.15
2018-01-27T10:54:18.210Z,1036.14
2018-01-27T10:55:17.125Z,1036.1
2018-01-27T10:56:16.978Z,1036.09
2018-01-27T10:57:18.176Z,1036.11
2018-01-27T10:58:18.982Z,1036.08
2018-01-27T10:59:23.156Z,1036.1
2018-01-27T11:00:17.849Z,1036.1
2018-01-27T11:01:17.947Z,1036.07
2018-01-27T11:02:17.285Z,1036.09
2018-01-27T11:03:17.157Z,1036.14
2018-01-27T11:04:18.528Z,1036.11
2018-01-27T11:05:17.909Z,1036.14
2018-01-27T11:06:17.065Z,1036.13
2018-01-27T11:07:17.561Z,1036.1
2018-01-27T11:08:19.772Z,1036.09
2018-01-27T11:09:17.455Z,1036.05
2018-01-27T11:10:17.725Z,1036.02
2018-01-27T11:11:20.002Z,1036.04
2018-01-27T11:12:17.269Z,1036.02
2018-01-27T11:13:17.874Z,1036.04
2018-01-27T11:14:17.903Z,1036.06
2018-01-27T11:15:18.061Z,1035.99
2018-01-27T11:16:17.987Z,1036.03
2018-01-27T11:17:17.868Z,1035.97
2018-01-27T11:18:18.489Z,1035.94
2018-01-27T11:19:18.643Z,1035.93
2018-01-27T11:20:18.419Z,1035.86
2018-01-27T11:21:17.335Z,1035.87
2018-01-27T11:22:17.791Z,1035.8
2018-01-27T11:23:19.434Z,1035.84
2018-01-27T11:24:17.418Z,1035.88
2018-01-27T11:25:17.325Z,1035.85
2018-01-27T11:26:18.070Z,1035.83
2018-01-27T11:27:18.654Z,1035.85
2018-01-27T11:28:19.351Z,1035.8
2018-01-27T11:29:22.698Z,1035.78
2018-01-27T11:30:18.058Z,1035.77
2018-01-27T11:31:17.957Z,1035.79
2018-01-27T11:32:17.796Z,1035.76
2018-01-27T11:33:17.930Z,1035.73
2018-01-27T11:34:18.076Z,1035.66
2018-01-27T11:35:17.713Z,1035.62
2018-01-27T11:36:17.825Z,1035.62
2018-01-27T11:37:19.313Z,1035.57
2018-01-27T11:38:17.134Z,1035.55
2018-01-27T11:39:17.066Z,1035.54
2018-01-27T11:40:17.317Z,1035.52
2018-01-27T11:41:17.149Z,1035.5
2018-01-27T11:42:17.297Z,1035.51
2018-01-27T11:43:17.565Z,1035.54
2018-01-27T11:44:17.472Z,1035.52
2018-01-27T11:45:17.313Z,1035.5
2018-01-27T11:46:17.383Z,1035.45
2018-01-27T11:47:17.295Z,1035.43
2018-01-27T11:48:17.228Z,1035.38
2018-01-27T11:49:17.315Z,1035.39
2018-01-27T11:50:17.283Z,1035.38
2018-01-27T11:51:17.352Z,1035.36
2018-01-27T11:52:17.319Z,1035.31
2018-01-27T11:53:17.363Z,1035.36
2018-01-27T11:54:17.268Z,1035.37
2018-01-27T11:55:17.324Z,1035.37
2018-01-27T11:56:17.345Z,1035.39
2018-01-27T11:57:17.327Z,1035.39
2018-01-27T11:58:17.311Z,1035.39
2018-01-27T11:59:17.344Z,1035.31
2018-01-27T12:00:17.280Z,1035.33
2018-01-27T12:01:17.343Z,1035.32
2018-01-27T12:02:17.290Z,1035.28
2018-01-27T12:03:17.345Z,1035.31
2018-01-27T12:04:17.237Z,1035.26
2018-01-27T12:05:17.563Z,1035.25
2018-01-27T12:06:17.203Z,1035.29
2018-01-27T12:07:17.532Z,1035.23
2018-01-27T12:08:17.316Z,1035.24
2018-01-27T12:09:17.258Z,1035.22
2018-01-27T12:10:17.447Z,1035.26
2018-01-27T12:11:17.376Z,1035.31
2018-01-27T12:12:17.394Z,1035.36
2018-01-27T12:13:17.358Z,1035.3
2018-01-27T12:14:17.308Z,1035.31